Time;durP1;ratioP1;P1;durP2;ratioP2;P2;SDS_P1;SDS_P2;PMS_P1;PMS_P2;Temp;Humidity;BMP_temperature;BMP_pressure;BME280_temperature;BME280_humidity;BME280_pressure;Samples;Min_cycle;Max_cycle;Signal;HPM_P1;HPM_P2
2021/03/20 00:01:34;;;;;;;2.03;0.47;;;12.10;99.90;;;;;;4857402;29;20752;-83
2021/03/20 00:04:05;;;;;;;0.60;0.40;;;12.00;99.90;;;;;;4861760;29;20253;-81
2021/03/20 00:06:38;;;;;;;0.97;0.43;;;12.00;99.90;;;;;;4865047;29;20222;-88
2021/03/20 00:09:12;;;;;;;0.80;0.40;;;12.00;99.90;;;;;;4864000;29;20346;-88
2021/03/20 00:11:46;;;;;;;2.37;0.40;;;12.00;99.90;;;;;;4864767;29;20215;-88
2021/03/20 00:14:19;;;;;;;0.60;0.30;;;12.00;99.90;;;;;;4865330;29;20210;-87
2021/03/20 00:16:55;;;;;;;1.70;0.43;;;12.00;99.90;;;;;;4863906;29;20211;-87
2021/03/20 00:19:25;;;;;;;0.83;0.40;;;11.90;99.90;;;;;;4861978;29;20250;-87
2021/03/20 00:21:57;;;;;;;0.60;0.33;;;11.90;99.90;;;;;;4864271;29;20211;-87
2021/03/20 00:24:30;;;;;;;0.57;0.30;;;11.90;99.90;;;;;;4865110;29;20756;-87
2021/03/20 00:27:02;;;;;;;0.43;0.30;;;11.90;99.90;;;;;;4863796;29;20210;-85
2021/03/20 00:29:33;;;;;;;2.07;0.60;;;11.90;99.90;;;;;;4862729;29;20211;-87
2021/03/20 00:32:05;;;;;;;1.17;0.40;;;11.80;99.90;;;;;;4865473;29;20226;-87
2021/03/20 00:34:35;;;;;;;0.77;0.40;;;11.80;99.90;;;;;;4864065;29;20230;-86
2021/03/20 00:37:06;;;;;;;0.50;0.30;;;11.80;99.90;;;;;;4865372;29;20301;-91
2021/03/20 00:39:37;;;;;;;1.23;0.50;;;11.70;99.90;;;;;;4864900;29;20283;-89
2021/03/20 00:42:08;;;;;;;2.77;0.50;;;11.70;99.90;;;;;;4863590;29;20255;-87
2021/03/20 00:44:39;;;;;;;1.30;0.40;;;11.60;99.90;;;;;;4864136;29;20325;-89
2021/03/20 00:47:11;;;;;;;1.50;0.50;;;11.60;99.90;;;;;;4863625;29;20253;-89
2021/03/20 00:49:42;;;;;;;3.70;0.70;;;11.60;99.90;;;;;;4863727;29;20259;-89
2021/03/20 00:52:13;;;;;;;0.47;0.40;;;11.60;99.90;;;;;;4864514;29;20238;-82
2021/03/20 00:54:47;;;;;;;2.30;0.60;;;11.60;99.90;;;;;;4865966;29;20635;-92
2021/03/20 00:57:18;;;;;;;1.73;0.57;;;11.60;99.90;;;;;;4864507;29;20284;-84
2021/03/20 00:59:50;;;;;;;0.87;0.60;;;11.50;99.90;;;;;;4892419;29;20266;-87
2021/03/20 01:02:22;;;;;;;2.13;0.60;;;11.50;99.90;;;;;;4867995;29;20237;-85
2021/03/20 01:04:55;;;;;;;1.17;0.40;;;11.50;99.90;;;;;;4883263;29;20230;-86
2021/03/20 01:07:26;;;;;;;3.50;0.70;;;11.50;99.90;;;;;;4881666;29;20585;-87
2021/03/20 01:09:56;;;;;;;0.80;0.50;;;11.50;99.90;;;;;;4879331;29;20367;-86
2021/03/20 01:12:27;;;;;;;5.90;0.80;;;11.50;99.90;;;;;;4868596;29;20301;-89
2021/03/20 01:14:58;;;;;;;1.33;0.70;;;11.50;99.90;;;;;;4869445;29;20648;-89
2021/03/20 01:17:32;;;;;;;1.67;0.63;;;11.40;99.90;;;;;;4865303;29;20210;-85
2021/03/20 01:20:04;;;;;;;1.07;0.30;;;11.30;99.90;;;;;;4867631;29;20210;-85
2021/03/20 01:22:35;;;;;;;2.43;0.73;;;11.20;99.90;;;;;;4867518;29;20271;-86
2021/03/20 01:25:08;;;;;;;0.97;0.53;;;11.00;99.90;;;;;;4868163;29;20234;-87
2021/03/20 01:27:39;;;;;;;1.50;0.57;;;10.80;99.90;;;;;;4868769;29;20275;-86
2021/03/20 01:30:17;;;;;;;1.73;0.57;;;10.50;99.90;;;;;;4866640;29;20234;-86
2021/03/20 01:32:50;;;;;;;0.93;0.50;;;10.20;99.90;;;;;;4865501;29;20207;-86
2021/03/20 01:35:21;;;;;;;2.30;0.70;;;10.00;99.90;;;;;;4868089;29;20257;-86
2021/03/20 01:37:52;;;;;;;2.37;0.50;;;9.80;99.90;;;;;;4882993;29;20224;-86
2021/03/20 01:40:26;;;;;;;1.23;0.60;;;9.70;99.90;;;;;;4882642;29;20213;-85
2021/03/20 01:42:57;;;;;;;1.27;0.50;;;9.50;99.90;;;;;;4876148;29;20223;-85
2021/03/20 01:45:30;;;;;;;1.97;0.70;;;9.50;99.90;;;;;;4869478;29;20298;-84
2021/03/20 01:48:11;;;;;;;2.30;0.50;;;9.40;99.90;;;;;;4864178;29;20207;-85
2021/03/20 01:50:49;;;;;;;0.67;0.57;;;9.40;99.90;;;;;;4862356;29;20261;-85
2021/03/20 01:53:36;;;;;;;0.90;0.50;;;9.30;99.90;;;;;;4868971;29;20218;-85
2021/03/20 01:56:09;;;;;;;1.53;0.50;;;9.30;99.90;;;;;;4861366;29;20243;-86
2021/03/20 01:58:43;;;;;;;1.00;0.50;;;9.30;99.90;;;;;;4862265;29;20214;-85
2021/03/20 02:01:15;;;;;;;1.13;0.47;;;9.30;99.90;;;;;;4862594;29;20213;-86
2021/03/20 02:03:48;;;;;;;3.53;0.67;;;9.30;99.90;;;;;;4868588;29;20233;-83
2021/03/20 02:06:20;;;;;;;0.70;0.30;;;9.30;99.90;;;;;;4864354;29;20221;-89
2021/03/20 02:08:52;;;;;;;1.23;0.53;;;9.30;99.90;;;;;;4864799;29;20207;-89
2021/03/20 02:11:27;;;;;;;3.13;0.70;;;9.20;99.90;;;;;;4867902;29;20209;-88
2021/03/20 02:14:05;;;;;;;2.47;0.70;;;9.20;99.90;;;;;;4867443;29;20242;-88
2021/03/20 02:16:43;;;;;;;2.97;0.57;;;9.20;99.90;;;;;;4864259;29;20277;-88
2021/03/20 02:19:25;;;;;;;3.50;0.80;;;9.20;99.90;;;;;;4857782;29;20247;-88
2021/03/20 02:22:02;;;;;;;1.27;0.60;;;9.20;99.90;;;;;;4888234;29;20635;-88
2021/03/20 02:25:04;;;;;;;1.50;0.80;;;9.20;99.90;;;;;;4863514;29;20252;-88
2021/03/20 02:28:03;;;;;;;1.83;0.80;;;9.10;99.90;;;;;;4845715;29;20676;-89
2021/03/20 02:31:21;;;;;;;2.40;1.03;;;9.20;99.90;;;;;;4854638;29;20678;-89
2021/03/20 02:34:04;;;;;;;2.40;1.40;;;9.10;99.90;;;;;;4846318;29;20691;-88
2021/03/20 02:36:44;;;;;;;4.00;1.60;;;9.10;99.90;;;;;;4846362;29;20211;-89
2021/03/20 02:39:23;;;;;;;2.03;1.00;;;9.10;99.90;;;;;;4852729;29;20234;-89
2021/03/20 02:41:59;;;;;;;2.77;1.00;;;9.10;99.90;;;;;;4865788;29;20223;-89
2021/03/20 02:44:38;;;;;;;1.93;1.00;;;9.10;99.90;;;;;;4868667;29;20234;-90
2021/03/20 02:47:19;;;;;;;2.00;0.80;;;9.10;99.90;;;;;;4873271;29;20211;-89
2021/03/20 02:50:02;;;;;;;3.57;0.67;;;9.10;99.90;;;;;;4872154;29;20293;-89
2021/03/20 02:52:37;;;;;;;1.20;0.67;;;9.20;99.90;;;;;;4870401;29;20252;-89
2021/03/20 02:55:13;;;;;;;1.47;0.60;;;9.10;99.90;;;;;;4869500;29;20221;-90
2021/03/20 02:57:52;;;;;;;3.60;1.00;;;9.10;99.90;;;;;;4871741;29;20214;-90
2021/03/20 03:00:29;;;;;;;2.30;1.00;;;9.10;99.90;;;;;;4874045;29;20278;-88
2021/03/20 03:03:03;;;;;;;1.80;0.87;;;9.10;99.90;;;;;;4868641;29;20226;-89
2021/03/20 03:05:42;;;;;;;4.10;0.80;;;9.10;99.90;;;;;;4900788;29;20290;-90
2021/03/20 03:11:43;;;;;;;2.47;0.90;;;9.20;99.90;;;;;;5264189;23;20241;-91
2021/03/20 03:14:32;;;;;;;2.30;0.80;;;9.10;99.90;;;;;;4903076;29;20255;-91
2021/03/20 03:17:09;;;;;;;1.77;0.87;;;9.10;99.90;;;;;;4893979;29;20238;-90
2021/03/20 03:22:37;;;;;;;1.57;1.00;;;9.30;99.90;;;;;;4907681;29;20217;-91
2021/03/20 03:25:14;;;;;;;2.47;0.70;;;9.20;99.90;;;;;;4907211;29;20333;-91
2021/03/20 03:27:50;;;;;;;4.73;0.70;;;9.30;99.90;;;;;;4911849;29;20269;-90
2021/03/20 03:30:27;;;;;;;1.23;0.60;;;9.20;99.90;;;;;;4911565;29;20209;-92
2021/03/20 03:33:02;;;;;;;1.27;0.70;;;9.40;99.90;;;;;;4909171;29;20282;-90
2021/03/20 03:35:38;;;;;;;1.17;0.70;;;9.30;99.90;;;;;;4893963;29;20671;-90
2021/03/20 03:38:20;;;;;;;2.03;0.70;;;9.20;99.90;;;;;;4906616;29;20201;-90
2021/03/20 03:40:53;;;;;;;3.00;0.80;;;9.10;99.90;;;;;;4921553;29;20237;-88
2021/03/20 03:43:25;;;;;;;3.47;1.90;;;9.10;99.90;;;;;;4920711;29;20186;-85
2021/03/20 03:45:59;;;;;;;1.20;0.70;;;9.00;99.90;;;;;;4919314;29;20211;-88
2021/03/20 03:48:30;;;;;;;2.30;1.00;;;9.00;99.90;;;;;;4895331;29;20233;-88
2021/03/20 03:51:10;;;;;;;0.93;0.67;;;9.00;99.90;;;;;;4902746;29;20220;-88
2021/03/20 03:53:45;;;;;;;2.23;0.80;;;9.00;99.90;;;;;;4929066;29;20620;-87
2021/03/20 03:56:30;;;;;;;1.57;0.90;;;9.20;99.90;;;;;;4935738;29;20259;-87
2021/03/20 03:59:15;;;;;;;0.80;0.60;;;9.20;99.90;;;;;;4938958;29;20228;-89
2021/03/20 04:02:00;;;;;;;0.80;0.53;;;9.30;99.90;;;;;;4921432;29;20208;-89
2021/03/20 04:04:52;;;;;;;3.97;0.37;;;9.30;99.90;;;;;;4908886;29;20231;-88
2021/03/20 04:07:41;;;;;;;1.20;0.60;;;9.30;99.90;;;;;;4921659;29;20264;-89
2021/03/20 04:10:29;;;;;;;0.50;0.40;;;9.40;99.90;;;;;;4883624;29;20270;-89
2021/03/20 04:13:09;;;;;;;0.60;0.40;;;9.40;99.90;;;;;;4892861;29;20245;-89
2021/03/20 04:15:48;;;;;;;3.17;0.80;;;9.40;99.90;;;;;;4894567;29;20273;-87
2021/03/20 04:18:27;;;;;;;1.50;0.47;;;9.30;99.90;;;;;;4911883;29;20268;-84
2021/03/20 04:21:06;;;;;;;1.07;0.50;;;9.30;99.90;;;;;;4902000;29;20565;-89
2021/03/20 04:23:41;;;;;;;0.90;0.70;;;9.30;99.90;;;;;;4895005;29;20212;-88
2021/03/20 04:26:23;;;;;;;1.13;0.40;;;9.30;99.90;;;;;;4894835;29;20661;-89
2021/03/20 04:29:17;;;;;;;1.00;0.40;;;9.30;99.90;;;;;;4890442;29;20254;-89
2021/03/20 04:31:56;;;;;;;1.50;0.50;;;9.30;99.90;;;;;;4887544;29;20251;-89
2021/03/20 04:34:45;;;;;;;1.07;0.40;;;9.20;99.90;;;;;;4897854;29;20209;-89
2021/03/20 04:37:24;;;;;;;1.17;0.50;;;9.10;99.90;;;;;;4897653;29;20205;-90
2021/03/20 04:40:06;;;;;;;0.90;0.57;;;9.10;99.90;;;;;;4887336;29;20269;-91
2021/03/20 04:43:05;;;;;;;0.77;0.47;;;9.10;99.90;;;;;;4903030;29;20206;-91
2021/03/20 04:46:10;;;;;;;0.57;0.53;;;9.00;99.90;;;;;;4888986;29;20286;-88
2021/03/20 04:49:10;;;;;;;1.93;1.00;;;8.90;99.90;;;;;;4891309;29;20210;-91
2021/03/20 04:52:12;;;;;;;1.30;0.80;;;8.90;99.90;;;;;;4899751;29;20223;-89
2021/03/20 05:09:11;;;;;;;1.17;0.33;;;8.80;99.90;;;;;;4900193;29;20217;-94
2021/03/20 05:11:57;;;;;;;1.20;0.30;;;8.90;99.90;;;;;;4897149;29;20228;-89
2021/03/20 05:14:38;;;;;;;0.80;0.30;;;8.90;99.90;;;;;;4900898;29;20666;-89
2021/03/20 05:17:12;;;;;;;1.57;0.50;;;8.90;99.90;;;;;;4897938;29;20233;-89
2021/03/20 05:19:43;;;;;;;0.63;0.30;;;8.90;99.90;;;;;;4899417;29;20293;-89
2021/03/20 05:22:18;;;;;;;0.53;0.40;;;8.90;99.90;;;;;;4900892;29;20330;-89
2021/03/20 05:24:55;;;;;;;1.10;0.33;;;8.90;99.90;;;;;;4903200;29;20293;-92
2021/03/20 05:27:28;;;;;;;1.80;0.50;;;8.90;99.90;;;;;;4899861;29;20293;-88
2021/03/20 05:29:59;;;;;;;0.50;0.50;;;8.90;99.90;;;;;;4899247;29;20646;-89
2021/03/20 05:32:34;;;;;;;3.90;0.57;;;8.90;99.90;;;;;;4899286;29;20628;-88
2021/03/20 05:35:10;;;;;;;1.20;0.40;;;8.80;99.90;;;;;;4891452;29;20211;-89
2021/03/20 05:37:42;;;;;;;0.50;0.40;;;8.70;99.90;;;;;;4899286;29;20216;-86
2021/03/20 05:40:24;;;;;;;0.67;0.47;;;8.40;99.90;;;;;;4887121;29;20746;-87
2021/03/20 05:43:25;;;;;;;0.80;0.53;;;8.30;99.90;;;;;;4885944;29;20210;-86
2021/03/20 05:46:07;;;;;;;0.70;0.30;;;8.30;99.90;;;;;;4881425;29;20302;-87
2021/03/20 05:48:46;;;;;;;0.67;0.40;;;8.40;99.90;;;;;;4880987;29;20241;-88
2021/03/20 05:51:41;;;;;;;0.57;0.40;;;8.40;99.90;;;;;;4890839;29;20261;-87
2021/03/20 05:54:23;;;;;;;0.53;0.30;;;8.40;99.90;;;;;;4904553;29;20614;-86
2021/03/20 05:57:08;;;;;;;1.07;0.30;;;8.50;99.90;;;;;;4909084;29;20261;-86
2021/03/20 05:59:48;;;;;;;0.63;0.20;;;8.50;99.90;;;;;;4901943;29;20216;-88
2021/03/20 06:02:39;;;;;;;2.50;0.30;;;8.50;99.90;;;;;;4900780;29;20205;-90
2021/03/20 06:05:31;;;;;;;2.00;0.53;;;8.40;99.90;;;;;;4901693;29;20241;-90
2021/03/20 06:08:27;;;;;;;0.90;0.20;;;8.10;99.90;;;;;;4903266;29;20234;-90
2021/03/20 06:11:00;;;;;;;0.50;0.30;;;7.80;99.90;;;;;;4901984;29;20277;-90
2021/03/20 06:13:43;;;;;;;0.30;0.30;;;7.60;99.90;;;;;;4905459;29;20251;-89
2021/03/20 06:16:29;;;;;;;0.97;0.30;;;7.40;99.90;;;;;;4920491;29;20201;-89
2021/03/20 06:19:17;;;;;;;1.03;0.30;;;7.30;99.90;;;;;;4919732;29;20213;-89
2021/03/20 06:22:17;;;;;;;0.57;0.20;;;7.30;99.90;;;;;;4910368;29;20238;-89
2021/03/20 06:25:12;;;;;;;2.20;0.40;;;7.30;99.90;;;;;;4912586;29;20234;-90
2021/03/20 06:27:48;;;;;;;0.83;0.27;;;7.30;99.90;;;;;;4906916;29;20587;-90
2021/03/20 06:30:34;;;;;;;2.17;0.40;;;7.50;99.90;;;;;;4892722;29;20245;-90
2021/03/20 06:33:09;;;;;;;3.50;1.00;;;7.50;99.90;;;;;;4888011;29;20210;-90
2021/03/20 06:35:45;;;;;;;1.37;0.40;;;7.60;99.90;;;;;;4887387;29;20208;-89
2021/03/20 06:38:35;;;;;;;0.57;0.30;;;7.60;99.90;;;;;;4884360;29;20210;-91
2021/03/20 06:41:27;;;;;;;1.53;0.20;;;7.70;99.90;;;;;;4883961;29;20288;-90
2021/03/20 06:44:02;;;;;;;0.30;0.30;;;7.80;99.90;;;;;;4884692;29;20214;-89
2021/03/20 06:46:34;;;;;;;2.20;0.30;;;7.60;99.90;;;;;;4888316;29;20199;-91
2021/03/20 06:49:25;;;;;;;0.40;0.30;;;7.70;99.90;;;;;;4884076;29;20259;-90
2021/03/20 06:51:59;;;;;;;1.17;0.20;;;7.70;99.90;;;;;;4884605;29;20206;-88
2021/03/20 06:54:34;;;;;;;0.30;0.20;;;7.70;99.90;;;;;;4885328;29;20281;-89
2021/03/20 06:57:05;;;;;;;0.13;0.13;;;7.70;99.90;;;;;;4884709;29;20210;-90
2021/03/20 06:59:36;;;;;;;1.40;0.30;;;7.80;99.90;;;;;;4882767;29;20286;-89
2021/03/20 07:02:21;;;;;;;1.20;0.23;;;7.80;99.90;;;;;;4886138;29;20682;-89
2021/03/20 07:05:15;;;;;;;2.23;0.30;;;7.80;99.90;;;;;;4898356;29;20833;-89
2021/03/20 07:07:58;;;;;;;0.10;0.10;;;7.80;99.90;;;;;;4906713;29;20215;-88
2021/03/20 07:10:39;;;;;;;0.77;0.20;;;7.70;99.90;;;;;;4890560;29;20217;-89
2021/03/20 07:13:14;;;;;;;0.30;0.30;;;7.70;99.90;;;;;;4883828;29;20206;-89
2021/03/20 07:15:46;;;;;;;1.07;0.40;;;7.60;99.90;;;;;;4887112;29;20540;-89
2021/03/20 07:18:37;;;;;;;1.33;0.30;;;7.60;99.90;;;;;;4883050;29;20202;-90
2021/03/20 07:21:27;;;;;;;0.30;0.23;;;7.50;99.90;;;;;;4883998;29;20663;-90
2021/03/20 07:24:00;;;;;;;1.60;0.47;;;7.30;99.90;;;;;;4885631;29;20286;-89
2021/03/20 07:26:35;;;;;;;1.53;0.73;;;7.00;99.90;;;;;;4883716;29;20222;-89
2021/03/20 07:29:05;;;;;;;0.20;0.20;;;6.80;99.90;;;;;;4885078;29;20218;-89
2021/03/20 07:31:53;;;;;;;0.80;0.30;;;6.70;99.90;;;;;;4867059;29;20207;-89
2021/03/20 07:34:30;;;;;;;1.13;0.40;;;6.50;99.90;;;;;;4865055;29;20234;-87
2021/03/20 07:37:14;;;;;;;0.60;0.30;;;6.40;99.90;;;;;;4866522;29;20294;-88
2021/03/20 07:39:48;;;;;;;0.20;0.20;;;6.30;99.90;;;;;;4866134;29;20580;-90
2021/03/20 07:42:32;;;;;;;0.60;0.37;;;6.30;99.90;;;;;;4867126;29;20218;-88
2021/03/20 07:45:07;;;;;;;1.83;0.30;;;6.20;99.90;;;;;;4865370;29;20239;-89
2021/03/20 07:47:40;;;;;;;0.10;0.10;;;6.30;99.90;;;;;;4894828;29;20222;-89
2021/03/20 07:50:25;;;;;;;0.50;0.20;;;6.30;99.90;;;;;;4866828;29;20593;-90
2021/03/20 07:53:14;;;;;;;0.40;0.20;;;6.30;99.90;;;;;;4864585;29;20202;-90
2021/03/20 07:55:58;;;;;;;0.70;0.20;;;6.30;99.90;;;;;;4866305;29;20561;-90
2021/03/20 07:58:36;;;;;;;0.43;0.20;;;6.30;99.90;;;;;;4868303;29;20278;-89
2021/03/20 08:01:13;;;;;;;1.50;0.10;;;6.30;99.90;;;;;;4869285;29;20232;-89
2021/03/20 08:03:53;;;;;;;1.67;0.33;;;6.30;99.90;;;;;;4880827;29;20205;-90
2021/03/20 08:06:28;;;;;;;0.37;0.13;;;6.30;99.90;;;;;;4902247;29;20686;-89
2021/03/20 08:09:24;;;;;;;0.23;0.23;;;6.30;99.90;;;;;;4901177;29;20209;-88
2021/03/20 08:12:09;;;;;;;3.40;0.30;;;6.40;99.90;;;;;;4901490;29;20269;-88
2021/03/20 08:15:05;;;;;;;1.67;0.40;;;6.40;99.90;;;;;;4901089;29;20533;-88
2021/03/20 08:17:39;;;;;;;1.87;0.30;;;6.40;99.90;;;;;;4881534;29;20214;-88
2021/03/20 08:20:17;;;;;;;0.60;0.30;;;6.40;99.90;;;;;;4882510;29;20244;-90
2021/03/20 08:23:15;;;;;;;0.60;0.30;;;6.50;99.90;;;;;;4882537;29;20258;-89
2021/03/20 08:25:56;;;;;;;0.40;0.20;;;6.50;99.90;;;;;;4878427;29;20274;-89
2021/03/20 08:28:50;;;;;;;0.73;0.30;;;6.50;99.90;;;;;;4891460;29;20209;-88
2021/03/20 08:31:50;;;;;;;2.10;0.20;;;6.50;99.90;;;;;;4903624;29;20221;-89
2021/03/20 08:34:35;;;;;;;2.10;0.50;;;6.50;99.90;;;;;;4902360;29;20218;-88
2021/03/20 08:37:24;;;;;;;2.30;0.40;;;6.50;99.90;;;;;;4887237;29;20211;-90
2021/03/20 08:40:27;;;;;;;0.40;0.30;;;6.50;99.90;;;;;;4884808;29;20210;-90
2021/03/20 08:43:30;;;;;;;0.70;0.30;;;6.50;99.90;;;;;;4877705;29;20248;-90
2021/03/20 08:46:10;;;;;;;0.57;0.30;;;6.50;99.90;;;;;;4879828;29;20249;-89
2021/03/20 08:49:03;;;;;;;0.63;0.30;;;6.50;99.90;;;;;;4881730;29;20218;-90
2021/03/20 08:51:45;;;;;;;0.40;0.30;;;6.50;99.90;;;;;;4882636;29;20210;-88
2021/03/20 08:54:36;;;;;;;0.20;0.20;;;6.50;99.90;;;;;;4881709;29;20632;-88
2021/03/20 08:57:21;;;;;;;0.73;0.30;;;6.50;99.90;;;;;;4881946;29;20244;-88
2021/03/20 08:59:54;;;;;;;0.63;0.20;;;6.50;99.90;;;;;;4881723;29;20301;-89
2021/03/20 09:02:38;;;;;;;0.50;0.30;;;6.50;99.90;;;;;;4866915;29;20711;-89
2021/03/20 09:05:24;;;;;;;0.50;0.20;;;6.40;99.90;;;;;;4873598;29;20707;-88
2021/03/20 09:07:58;;;;;;;0.40;0.20;;;6.50;99.90;;;;;;4884183;29;20223;-89
2021/03/20 09:10:33;;;;;;;0.47;0.20;;;6.50;99.90;;;;;;4877664;29;20222;-89
2021/03/20 09:13:14;;;;;;;0.20;0.20;;;6.50;99.90;;;;;;4864771;29;20211;-89
2021/03/20 09:15:50;;;;;;;0.20;0.20;;;6.50;99.90;;;;;;4864824;29;20274;-89
2021/03/20 09:18:22;;;;;;;0.57;0.30;;;6.50;99.90;;;;;;4871218;29;20221;-89
2021/03/20 09:20:59;;;;;;;0.20;0.20;;;6.50;99.90;;;;;;4884873;29;20214;-89
2021/03/20 09:23:34;;;;;;;0.53;0.33;;;6.60;99.90;;;;;;4899191;29;20378;-90
2021/03/20 09:26:08;;;;;;;0.67;0.17;;;6.60;99.90;;;;;;4901011;29;20234;-89
2021/03/20 09:29:12;;;;;;;0.10;0.10;;;6.50;99.90;;;;;;4900341;29;20209;-88
2021/03/20 09:32:01;;;;;;;1.13;0.20;;;6.50;99.90;;;;;;4889358;29;20250;-88
2021/03/20 09:34:51;;;;;;;0.63;0.50;;;6.60;99.90;;;;;;4889221;29;20247;-88
2021/03/20 09:37:56;;;;;;;1.07;0.30;;;6.60;99.90;;;;;;4887643;29;20214;-88
2021/03/20 09:40:55;;;;;;;1.30;0.20;;;6.70;99.90;;;;;;4843473;29;20604;-89
2021/03/20 09:43:46;;;;;;;0.53;0.20;;;6.70;99.90;;;;;;4880628;29;20647;-86
2021/03/20 09:46:50;;;;;;;0.10;0.10;;;6.70;99.90;;;;;;4881814;29;20233;-87
2021/03/20 09:49:54;;;;;;;0.20;0.20;;;6.70;99.90;;;;;;4883692;29;20222;-86
2021/03/20 09:52:47;;;;;;;0.30;0.10;;;6.80;99.90;;;;;;4892843;29;20218;-86
2021/03/20 09:55:53;;;;;;;0.43;0.20;;;6.80;99.90;;;;;;4894309;29;20217;-86
2021/03/20 09:58:43;;;;;;;0.43;0.20;;;6.90;99.90;;;;;;4884844;29;20250;-88
2021/03/20 10:01:51;;;;;;;0.13;0.10;;;6.90;99.90;;;;;;4884228;29;20289;-88
2021/03/20 10:04:30;;;;;;;0.53;0.20;;;6.90;99.90;;;;;;4882941;29;20231;-88
2021/03/20 10:07:39;;;;;;;0.20;0.17;;;7.00;99.90;;;;;;4884591;29;20295;-89
2021/03/20 10:10:52;;;;;;;0.30;0.20;;;7.00;99.90;;;;;;4887170;29;20258;-87
2021/03/20 10:13:39;;;;;;;0.40;0.20;;;7.00;99.90;;;;;;4866920;29;20219;-88
2021/03/20 10:16:32;;;;;;;0.20;0.10;;;7.10;99.90;;;;;;4865539;29;20269;-87
2021/03/20 10:19:12;;;;;;;0.20;0.20;;;7.00;99.90;;;;;;4866374;29;20214;-88
2021/03/20 10:21:45;;;;;;;0.33;0.23;;;7.10;99.90;;;;;;4865168;29;20233;-88
2021/03/20 10:24:25;;;;;;;0.20;0.10;;;7.00;99.90;;;;;;4866186;29;20271;-87
2021/03/20 10:27:03;;;;;;;0.30;0.30;;;7.00;99.90;;;;;;4866226;29;20270;-90
2021/03/20 10:29:38;;;;;;;0.30;0.10;;;7.00;99.90;;;;;;4864860;29;20279;-89
2021/03/20 10:32:19;;;;;;;0.80;0.20;;;7.00;99.90;;;;;;4865724;29;20656;-89
2021/03/20 10:34:52;;;;;;;0.20;0.10;;;7.00;99.90;;;;;;4866102;29;20744;-89
2021/03/20 10:37:33;;;;;;;0.73;0.20;;;7.00;99.90;;;;;;4866645;29;20659;-90
2021/03/20 10:40:11;;;;;;;0.63;0.40;;;7.10;99.90;;;;;;4869615;29;20211;-90
2021/03/20 10:42:44;;;;;;;0.20;0.20;;;7.00;99.90;;;;;;4874158;29;20244;-89
2021/03/20 10:45:27;;;;;;;0.63;0.30;;;7.10;99.90;;;;;;4886837;29;20253;-89
2021/03/20 10:48:03;;;;;;;0.83;0.27;;;7.00;99.90;;;;;;4884961;29;20219;-89
2021/03/20 10:50:35;;;;;;;0.20;0.20;;;7.00;99.90;;;;;;4872077;29;20247;-89
2021/03/20 10:53:14;;;;;;;0.17;0.17;;;7.00;99.90;;;;;;4874781;29;20215;-89
2021/03/20 10:55:47;;;;;;;0.20;0.20;;;7.00;99.90;;;;;;4867377;29;20250;-87
2021/03/20 10:58:28;;;;;;;0.30;0.30;;;6.90;99.90;;;;;;4865036;29;20235;-87
2021/03/20 11:01:00;;;;;;;0.60;0.20;;;7.00;99.90;;;;;;4864260;29;20263;-88
2021/03/20 11:03:35;;;;;;;2.30;0.50;;;6.90;99.90;;;;;;4865723;29;20281;-88
2021/03/20 11:06:14;;;;;;;1.63;0.20;;;6.90;99.90;;;;;;4865442;29;20234;-87
2021/03/20 11:08:47;;;;;;;0.50;0.20;;;6.90;99.90;;;;;;4871663;29;20202;-88
2021/03/20 11:11:25;;;;;;;0.63;0.20;;;6.80;99.90;;;;;;4883665;29;20225;-88
2021/03/20 11:14:04;;;;;;;0.97;0.40;;;6.70;99.90;;;;;;4886349;29;20224;-89
2021/03/20 11:16:56;;;;;;;0.73;0.33;;;6.60;99.90;;;;;;4888112;29;20240;-89
2021/03/20 11:19:31;;;;;;;1.30;0.60;;;6.50;99.90;;;;;;4885611;29;20214;-89
2021/03/20 11:22:19;;;;;;;0.60;0.20;;;6.40;99.90;;;;;;4882531;29;20206;-89
2021/03/20 11:24:55;;;;;;;0.80;0.30;;;6.30;99.90;;;;;;4883652;29;20274;-87
2021/03/20 11:27:29;;;;;;;1.80;0.33;;;6.20;99.90;;;;;;4883668;29;20274;-88
2021/03/20 11:30:03;;;;;;;1.10;0.50;;;6.20;99.90;;;;;;4882891;29;20214;-88
2021/03/20 11:32:39;;;;;;;3.50;0.80;;;6.10;99.90;;;;;;4887788;29;20238;-88
2021/03/20 11:35:20;;;;;;;0.43;0.30;;;6.10;99.90;;;;;;4884468;29;20218;-88
2021/03/20 11:37:50;;;;;;;0.70;0.40;;;6.10;99.90;;;;;;4884855;29;20287;-88
2021/03/20 11:40:31;;;;;;;2.77;0.63;;;6.20;99.90;;;;;;4882845;29;20298;-88
2021/03/20 11:43:05;;;;;;;0.73;0.17;;;6.20;99.90;;;;;;4883622;29;20218;-88
2021/03/20 11:45:39;;;;;;;1.23;0.27;;;6.20;99.90;;;;;;4883478;29;20233;-89
2021/03/20 11:48:18;;;;;;;0.37;0.30;;;6.20;99.90;;;;;;4884560;29;20400;-88
2021/03/20 11:50:55;;;;;;;3.50;0.30;;;6.20;99.90;;;;;;4885872;29;20273;-89
2021/03/20 11:53:28;;;;;;;1.60;0.40;;;6.20;99.90;;;;;;4885044;29;20202;-89
2021/03/20 11:56:00;;;;;;;1.80;0.60;;;6.20;99.90;;;;;;4884565;29;20261;-87
2021/03/20 11:58:33;;;;;;;1.57;0.37;;;6.20;99.90;;;;;;4884423;29;20270;-89
2021/03/20 12:01:28;;;;;;;0.70;0.30;;;6.20;99.90;;;;;;4884661;29;20220;-89
2021/03/20 12:04:17;;;;;;;1.20;0.30;;;6.20;99.90;;;;;;4883950;29;20241;-88
2021/03/20 12:06:47;;;;;;;0.20;0.20;;;6.20;99.90;;;;;;4873552;29;20336;-87
2021/03/20 12:09:35;;;;;;;0.83;0.50;;;6.20;99.90;;;;;;4881912;29;20206;-89
2021/03/20 12:12:07;;;;;;;2.27;0.20;;;6.20;99.90;;;;;;4882898;29;20639;-89
2021/03/20 12:14:41;;;;;;;0.40;0.40;;;6.20;99.90;;;;;;4882912;29;20294;-89
2021/03/20 12:17:19;;;;;;;1.07;0.40;;;6.20;99.90;;;;;;4882381;29;20237;-88
2021/03/20 12:20:04;;;;;;;3.07;0.90;;;6.10;99.90;;;;;;4863578;29;20683;-88
2021/03/20 12:22:46;;;;;;;1.30;0.30;;;6.10;99.90;;;;;;4863920;29;20294;-88
2021/03/20 12:25:29;;;;;;;0.40;0.20;;;6.10;99.90;;;;;;4863035;29;20648;-88
2021/03/20 12:28:32;;;;;;;0.50;0.23;;;6.10;99.90;;;;;;4863296;29;20226;-88
2021/03/20 12:31:29;;;;;;;1.67;0.30;;;6.20;99.90;;;;;;4858924;29;20306;-88
2021/03/20 12:34:02;;;;;;;3.40;0.50;;;6.20;99.90;;;;;;4864350;29;20235;-88
2021/03/20 12:36:41;;;;;;;0.30;0.20;;;6.20;99.90;;;;;;4863720;29;20219;-88
2021/03/20 12:39:13;;;;;;;0.20;0.20;;;6.20;99.90;;;;;;4871177;29;20248;-88
2021/03/20 12:41:45;;;;;;;1.53;0.30;;;6.20;99.90;;;;;;4872458;29;20680;-87
2021/03/20 12:44:18;;;;;;;1.40;0.50;;;6.20;99.90;;;;;;4871335;29;20276;-88
2021/03/20 12:46:51;;;;;;;0.73;0.40;;;6.20;99.90;;;;;;4864894;29;20657;-88
2021/03/20 12:49:25;;;;;;;1.37;0.40;;;6.20;99.90;;;;;;4864871;29;20573;-89
2021/03/20 12:52:02;;;;;;;1.60;0.30;;;6.30;99.90;;;;;;4864953;29;20219;-88
2021/03/20 12:54:36;;;;;;;1.70;0.57;;;6.40;99.90;;;;;;4872239;29;20206;-88
2021/03/20 12:57:10;;;;;;;1.37;0.50;;;6.40;99.90;;;;;;4898853;29;20204;-88
2021/03/20 12:59:41;;;;;;;2.37;0.40;;;6.50;99.90;;;;;;4899658;29;20308;-88
2021/03/20 13:02:12;;;;;;;1.13;0.30;;;6.50;99.90;;;;;;4890550;29;20214;-87
2021/03/20 13:04:44;;;;;;;1.00;0.43;;;6.50;99.90;;;;;;4890840;29;20290;-87
2021/03/20 13:07:19;;;;;;;1.83;0.50;;;6.50;99.90;;;;;;4880838;29;20297;-86
2021/03/20 13:09:51;;;;;;;0.53;0.30;;;6.50;99.90;;;;;;4881096;29;20217;-87
2021/03/20 13:12:25;;;;;;;5.80;0.57;;;6.40;99.90;;;;;;4882001;29;20214;-88
2021/03/20 13:14:56;;;;;;;2.63;0.50;;;6.30;99.90;;;;;;4884677;29;20205;-89
2021/03/20 13:17:29;;;;;;;2.27;0.40;;;6.20;99.90;;;;;;4883344;29;20301;-89
2021/03/20 13:20:04;;;;;;;1.40;0.50;;;6.10;99.90;;;;;;4881555;29;20279;-88
2021/03/20 13:22:37;;;;;;;3.23;0.37;;;6.00;99.90;;;;;;4882281;29;20242;-90
2021/03/20 13:25:37;;;;;;;1.40;0.37;;;5.90;99.90;;;;;;4888418;29;20214;-90
2021/03/20 13:28:19;;;;;;;0.30;0.20;;;5.90;99.90;;;;;;4892787;29;20221;-90
2021/03/20 13:30:52;;;;;;;1.67;0.40;;;5.80;99.90;;;;;;4882037;29;20683;-88
2021/03/20 13:33:23;;;;;;;1.10;0.50;;;5.80;99.90;;;;;;4882136;29;20213;-90
2021/03/20 13:35:54;;;;;;;1.07;0.40;;;5.80;99.90;;;;;;4880817;29;20710;-90
2021/03/20 13:38:26;;;;;;;3.13;0.63;;;5.70;99.90;;;;;;4881829;29;20496;-89
2021/03/20 13:40:57;;;;;;;2.67;0.27;;;5.70;99.90;;;;;;4887533;29;20191;-92
2021/03/20 13:43:28;;;;;;;2.73;0.60;;;5.70;99.90;;;;;;4884224;29;20230;-91
2021/03/20 13:45:59;;;;;;;1.63;0.60;;;5.60;99.90;;;;;;4879204;29;20244;-90
2021/03/20 13:48:30;;;;;;;1.37;0.37;;;5.50;99.90;;;;;;4885012;29;20210;-90
2021/03/20 13:51:02;;;;;;;3.60;0.60;;;5.50;99.90;;;;;;4885195;29;20222;-91
2021/03/20 13:53:33;;;;;;;2.77;0.50;;;5.40;99.90;;;;;;4884577;29;20298;-91
2021/03/20 13:56:07;;;;;;;1.60;0.40;;;5.40;99.90;;;;;;4883382;29;20551;-91
2021/03/20 13:58:38;;;;;;;1.80;0.30;;;5.30;99.90;;;;;;4883243;29;20691;-91
2021/03/20 14:01:10;;;;;;;1.70;0.40;;;5.30;99.90;;;;;;4885997;29;20234;-91
2021/03/20 14:03:41;;;;;;;1.67;0.50;;;5.30;99.90;;;;;;4890929;29;20651;-90
2021/03/20 14:06:12;;;;;;;3.47;0.53;;;5.30;99.90;;;;;;4889946;29;20234;-87
2021/03/20 14:08:44;;;;;;;1.90;0.40;;;5.30;99.90;;;;;;4883258;29;20343;-89
2021/03/20 14:11:15;;;;;;;0.97;0.40;;;5.30;99.90;;;;;;4881717;29;20303;-90
2021/03/20 14:13:46;;;;;;;3.33;0.80;;;5.30;99.90;;;;;;4887945;29;20221;-89
2021/03/20 14:16:17;;;;;;;3.73;0.47;;;5.30;99.90;;;;;;4882958;29;20233;-90
2021/03/20 14:18:50;;;;;;;1.23;0.40;;;5.30;99.90;;;;;;4883777;29;20239;-92
2021/03/20 14:21:21;;;;;;;3.10;0.50;;;5.20;99.90;;;;;;4873794;29;20747;-89